createdAt,value
2023-01-01T00:00:23.702Z,92.40
2023-01-01T00:01:23.616Z,92.16
2023-01-01T00:02:23.589Z,92.36
2023-01-01T00:03:44.450Z,92.30
2023-01-01T00:04:23.370Z,92.93
2023-01-01T00:05:23.275Z,92.93
2023-01-01T00:06:23.220Z,92.26
2023-01-01T00:07:23.119Z,92.64
2023-01-01T00:08:23.065Z,92.26
2023-01-01T00:09:43.955Z,91.88
2023-01-01T00:10:22.887Z,92.55
2023-01-01T00:11:22.797Z,92.74
2023-01-01T00:12:22.764Z,92.55
2023-01-01T00:13:22.660Z,92.16
2023-01-01T00:14:22.575Z,92.26
2023-01-01T00:15:43.481Z,92.26
2023-01-01T00:16:22.444Z,92.45
2023-01-01T00:17:22.383Z,92.55
2023-01-01T00:18:22.262Z,92.36
2023-01-01T00:19:22.193Z,92.36
2023-01-01T00:20:22.102Z,92.26
2023-01-01T00:21:43.004Z,92.26
2023-01-01T00:22:53.404Z,92.36
2023-01-01T00:23:21.863Z,92.36
2023-01-01T00:24:21.782Z,92.45
2023-01-01T00:25:21.701Z,92.26
2023-01-01T00:26:21.632Z,92.26
2023-01-01T00:27:42.550Z,92.45
2023-01-01T00:28:21.463Z,92.36
2023-01-01T00:29:21.388Z,91.97
2023-01-01T00:30:21.300Z,92.30
2023-01-01T00:31:21.276Z,92.02
2023-01-01T00:32:23.126Z,91.45
2023-01-01T00:33:42.075Z,91.54
2023-01-01T00:34:20.986Z,91.45
2023-01-01T00:35:20.911Z,91.25
2023-01-01T00:36:20.829Z,90.78
2023-01-01T00:37:20.778Z,90.39
2023-01-01T00:38:20.672Z,90.88
2023-01-01T00:39:41.599Z,90.78
2023-01-01T00:40:20.529Z,90.78
2023-01-01T00:41:20.447Z,90.88
2023-01-01T00:42:20.369Z,90.78
2023-01-01T00:43:20.300Z,90.39
2023-01-01T00:44:20.206Z,91.06
2023-01-01T00:45:41.137Z,91.06
2023-01-01T00:46:20.090Z,90.78
2023-01-01T00:47:19.993Z,91.06
2023-01-01T00:48:19.880Z,91.35
2023-01-01T00:49:19.827Z,91.06
2023-01-01T00:50:19.778Z,91.06
2023-01-01T00:51:40.639Z,91.06
2023-01-01T00:52:19.568Z,91.16
2023-01-01T00:53:19.494Z,91.54
2023-01-01T00:54:19.420Z,91.45
2023-01-01T00:55:19.334Z,92.11
2023-01-01T00:56:19.263Z,91.30
2023-01-01T00:57:40.171Z,91.40
2023-01-01T00:58:19.098Z,91.78
2023-01-01T00:59:20.642Z,92.07
2023-01-01T01:00:18.957Z,92.36
2023-01-01T01:01:19.015Z,92.07
2023-01-01T01:02:18.949Z,91.88
2023-01-01T01:03:39.691Z,92.07
2023-01-01T01:04:18.622Z,92.26
2023-01-01T01:05:18.548Z,91.97
2023-01-01T01:06:18.470Z,92.26
2023-01-01T01:07:18.411Z,92.64
2023-01-01T01:08:18.307Z,92.26
2023-01-01T01:09:39.220Z,92.36
2023-01-01T01:10:18.146Z,92.07
2023-01-01T01:11:18.093Z,92.83
2023-01-01T01:12:19.050Z,91.97
2023-01-01T01:13:17.934Z,92.45
2023-01-01T01:14:17.838Z,91.97
2023-01-01T01:15:38.775Z,92.45
2023-01-01T01:16:17.789Z,91.88
2023-01-01T01:17:17.599Z,92.16
2023-01-01T01:18:17.537Z,92.26
2023-01-01T01:19:17.442Z,92.45
2023-01-01T01:20:17.369Z,92.16
2023-01-01T01:21:38.277Z,92.16
2023-01-01T01:22:17.220Z,92.55
2023-01-01T01:23:17.142Z,92.16
2023-01-01T01:24:17.057Z,92.16
2023-01-01T01:25:17.000Z,92.26
2023-01-01T01:26:16.898Z,92.26
2023-01-01T01:27:37.798Z,92.36
2023-01-01T01:28:16.736Z,91.88
2023-01-01T01:29:16.668Z,92.26
2023-01-01T01:30:16.571Z,92.16
2023-01-01T01:31:16.517Z,92.26
2023-01-01T01:32:16.419Z,92.45
2023-01-01T01:33:37.320Z,92.26
2023-01-01T01:34:17.041Z,92.36
2023-01-01T01:35:16.188Z,92.07
2023-01-01T01:36:16.103Z,91.69
2023-01-01T01:37:16.021Z,91.78
2023-01-01T01:38:15.950Z,92.36
2023-01-01T01:39:36.863Z,92.36
2023-01-01T01:40:15.795Z,92.36
2023-01-01T01:41:26.664Z,92.26
2023-01-01T01:42:15.634Z,91.97
2023-01-01T01:43:15.563Z,92.07
2023-01-01T01:44:15.483Z,91.97
2023-01-01T01:45:36.390Z,91.97
2023-01-01T01:46:15.422Z,91.40
2023-01-01T01:47:15.246Z,92.16
2023-01-01T01:48:15.189Z,92.07
2023-01-01T01:49:15.087Z,91.50
2023-01-01T01:50:14.999Z,90.64
2023-01-01T01:51:35.899Z,90.92
2023-01-01T01:52:14.852Z,91.30
2023-01-01T01:53:14.774Z,91.02
2023-01-01T01:54:14.701Z,91.11
2023-01-01T01:55:14.614Z,90.83
2023-01-01T01:56:14.529Z,90.64
2023-01-01T01:57:35.432Z,90.73
2023-01-01T01:58:14.372Z,90.83
2023-01-01T01:59:14.304Z,90.73
2023-01-01T02:00:14.213Z,90.73
2023-01-01T02:01:14.223Z,90.92
2023-01-01T02:02:14.167Z,91.02
2023-01-01T02:03:34.981Z,90.45
2023-01-01T02:04:13.895Z,91.02
2023-01-01T02:05:13.831Z,90.64
2023-01-01T02:06:13.742Z,90.25
2023-01-01T02:07:13.665Z,90.16
2023-01-01T02:08:13.589Z,90.73
2023-01-01T02:09:34.479Z,91.11
2023-01-01T02:10:13.409Z,91.02
2023-01-01T02:11:17.432Z,90.06
2023-01-01T02:12:13.278Z,90.45
2023-01-01T02:13:13.190Z,90.92
2023-01-01T02:14:13.123Z,90.83
2023-01-01T02:15:34.033Z,90.92
2023-01-01T02:16:13.046Z,90.35
2023-01-01T02:17:12.869Z,89.78
2023-01-01T02:18:12.798Z,90.83
2023-01-01T02:19:12.736Z,90.16
2023-01-01T02:20:12.647Z,90.06
2023-01-01T02:21:33.553Z,91.02
2023-01-01T02:22:12.491Z,90.92
2023-01-01T02:23:12.400Z,90.30
2023-01-01T02:24:12.322Z,90.30
2023-01-01T02:25:12.239Z,90.11
2023-01-01T02:26:12.161Z,90.39
2023-01-01T02:27:33.083Z,90.39
2023-01-01T02:28:11.995Z,90.25
2023-01-01T02:29:11.930Z,90.06
2023-01-01T02:30:11.836Z,90.25
2023-01-01T02:31:11.852Z,91.11
2023-01-01T02:32:11.693Z,90.92
2023-01-01T02:33:32.591Z,90.35
2023-01-01T02:34:11.528Z,90.45
2023-01-01T02:35:11.448Z,89.87
2023-01-01T02:36:11.368Z,90.25
2023-01-01T02:37:11.302Z,90.06
2023-01-01T02:38:11.217Z,90.06
2023-01-01T02:39:32.113Z,90.45
2023-01-01T02:40:11.061Z,90.45
2023-01-01T02:41:10.986Z,89.68
2023-01-01T02:42:10.892Z,90.06
2023-01-01T02:43:10.820Z,90.59
2023-01-01T02:44:10.744Z,89.87
2023-01-01T02:45:31.659Z,89.68
2023-01-01T02:46:10.623Z,90.01
2023-01-01T02:47:10.540Z,89.78
2023-01-01T02:48:10.456Z,89.68
2023-01-01T02:49:10.935Z,89.97
2023-01-01T02:50:10.282Z,89.87
2023-01-01T02:51:31.203Z,90.35
2023-01-01T02:52:10.111Z,90.25
2023-01-01T02:53:10.028Z,90.45
2023-01-01T02:54:09.950Z,90.06
2023-01-01T02:55:09.888Z,90.35
2023-01-01T02:56:09.786Z,90.73
2023-01-01T02:57:30.696Z,90.83
2023-01-01T02:58:09.639Z,90.73
2023-01-01T02:59:09.570Z,90.64
2023-01-01T03:00:09.482Z,90.35
2023-01-01T03:01:09.493Z,90.83
2023-01-01T03:02:09.425Z,90.83
2023-01-01T03:03:30.279Z,91.02
2023-01-01T03:04:09.178Z,91.02
2023-01-01T03:05:09.093Z,91.55
2023-01-01T03:06:09.006Z,91.36
2023-01-01T03:07:08.932Z,92.02
2023-01-01T03:08:08.877Z,92.41
2023-01-01T03:09:29.758Z,92.21
2023-01-01T03:10:08.694Z,93.12
2023-01-01T03:11:08.623Z,93.22
2023-01-01T03:12:08.542Z,93.79
2023-01-01T03:13:08.467Z,94.27
2023-01-01T03:14:08.377Z,95.12
2023-01-01T03:15:29.282Z,94.56
2023-01-01T03:16:08.242Z,94.36
2023-01-01T03:17:08.160Z,94.56
2023-01-01T03:18:08.083Z,94.74
2023-01-01T03:19:07.979Z,95.12
2023-01-01T03:20:07.897Z,94.70
2023-01-01T03:21:28.800Z,94.89
2023-01-01T03:22:07.755Z,95.32
2023-01-01T03:23:07.663Z,94.56
2023-01-01T03:24:07.583Z,94.74
2023-01-01T03:25:07.512Z,94.56
2023-01-01T03:26:07.417Z,94.74
2023-01-01T03:27:28.341Z,94.17
2023-01-01T03:28:07.261Z,94.17
2023-01-01T03:29:07.198Z,94.17
2023-01-01T03:30:07.127Z,94.36
2023-01-01T03:31:07.066Z,94.56
2023-01-01T03:32:06.960Z,94.56
2023-01-01T03:33:27.859Z,94.74
2023-01-01T03:34:06.805Z,94.46
2023-01-01T03:35:06.718Z,94.65
2023-01-01T03:36:06.650Z,94.65
2023-01-01T03:37:06.559Z,94.74
2023-01-01T03:38:06.492Z,94.84
2023-01-01T03:39:27.385Z,94.56
2023-01-01T03:40:06.314Z,94.36
2023-01-01T03:41:06.268Z,93.88
2023-01-01T03:42:06.171Z,94.17
2023-01-01T03:43:06.088Z,93.41
2023-01-01T03:44:05.998Z,93.51
2023-01-01T03:45:26.904Z,93.60
2023-01-01T03:46:05.858Z,94.07
2023-01-01T03:47:05.811Z,94.07
2023-01-01T03:48:05.691Z,93.70
2023-01-01T03:49:05.656Z,93.88
2023-01-01T03:50:05.531Z,93.51
2023-01-01T03:51:26.433Z,93.51
2023-01-01T03:52:05.399Z,93.98
2023-01-01T03:53:05.300Z,94.17
2023-01-01T03:54:05.216Z,93.70
2023-01-01T03:55:05.133Z,94.07
2023-01-01T03:56:05.079Z,94.07
2023-01-01T03:57:25.951Z,94.36
2023-01-01T03:58:04.895Z,93.98
2023-01-01T03:59:04.813Z,93.31
2023-01-01T04:00:04.737Z,93.51
2023-01-01T04:01:04.740Z,93.51
2023-01-01T04:02:04.669Z,92.93
2023-01-01T04:03:25.572Z,92.93
2023-01-01T04:04:04.449Z,92.93
2023-01-01T04:05:04.350Z,92.36
2023-01-01T04:06:04.258Z,92.83
2023-01-01T04:07:14.892Z,92.46
2023-01-01T04:08:04.105Z,92.31
2023-01-01T04:09:24.998Z,92.50
2023-01-01T04:10:03.957Z,92.79
2023-01-01T04:11:03.874Z,92.93
2023-01-01T04:12:03.787Z,92.74
2023-01-01T04:13:03.720Z,92.97
2023-01-01T04:14:03.641Z,92.65
2023-01-01T04:15:24.554Z,92.21
2023-01-01T04:16:03.535Z,92.31
2023-01-01T04:17:03.383Z,92.88
2023-01-01T04:18:03.317Z,91.93
2023-01-01T04:19:03.244Z,92.36
2023-01-01T04:20:03.139Z,92.65
2023-01-01T04:21:24.069Z,93.12
2023-01-01T04:22:03.008Z,93.31
2023-01-01T04:23:02.911Z,93.41
2023-01-01T04:24:02.828Z,93.70
2023-01-01T04:25:02.764Z,93.88
2023-01-01T04:26:02.672Z,93.93
2023-01-01T04:27:23.582Z,94.51
2023-01-01T04:28:02.519Z,95.08
2023-01-01T04:29:02.437Z,94.98
2023-01-01T04:30:02.364Z,95.46
2023-01-01T04:31:02.281Z,95.65
2023-01-01T04:32:02.222Z,95.94
2023-01-01T04:33:23.105Z,97.13
2023-01-01T04:34:02.057Z,96.94
2023-01-01T04:35:02.002Z,96.89
2023-01-01T04:36:01.881Z,96.89
2023-01-01T04:37:01.807Z,96.13
2023-01-01T04:38:01.725Z,96.13
2023-01-01T04:39:22.618Z,96.22
2023-01-01T04:40:01.571Z,95.75
2023-01-01T04:41:01.522Z,95.75
2023-01-01T04:42:01.409Z,95.94
2023-01-01T04:43:01.332Z,95.65
2023-01-01T04:44:01.263Z,95.27
2023-01-01T04:45:22.194Z,95.75
2023-01-01T04:46:01.120Z,95.46
2023-01-01T04:47:01.004Z,94.51
2023-01-01T04:48:00.929Z,94.70
2023-01-01T04:49:00.848Z,94.60
2023-01-01T04:50:00.768Z,94.60
2023-01-01T04:51:21.672Z,94.41
2023-01-01T04:52:00.608Z,95.65
2023-01-01T04:53:00.529Z,95.75
2023-01-01T04:54:00.457Z,95.75
2023-01-01T04:55:00.376Z,95.56
2023-01-01T04:56:00.309Z,95.46
2023-01-01T04:57:21.189Z,95.46
2023-01-01T04:58:00.147Z,95.32
2023-01-01T04:59:00.054Z,94.22
2023-01-01T04:59:59.984Z,94.65
2023-01-01T05:01:00.023Z,94.74
2023-01-01T05:01:59.920Z,93.79
2023-01-01T05:03:20.729Z,94.65
2023-01-01T05:03:59.670Z,94.74
2023-01-01T05:04:59.572Z,94.46
2023-01-01T05:05:59.503Z,94.36
2023-01-01T05:06:59.421Z,94.36
2023-01-01T05:07:59.341Z,94.17
2023-01-01T05:09:20.251Z,93.79
2023-01-01T05:09:59.195Z,93.98
2023-01-01T05:10:59.105Z,94.17
2023-01-01T05:11:59.030Z,93.41
2023-01-01T05:12:58.939Z,93.41
2023-01-01T05:13:58.854Z,93.41
2023-01-01T05:15:19.755Z,94.27
2023-01-01T05:15:58.734Z,94.17
2023-01-01T05:16:58.621Z,93.70
2023-01-01T05:17:58.541Z,93.98
2023-01-01T05:18:58.462Z,93.60
2023-01-01T05:19:58.411Z,93.79
2023-01-01T05:21:19.296Z,93.88
2023-01-01T05:21:58.231Z,93.70
2023-01-01T05:22:58.142Z,94.17
2023-01-01T05:23:58.084Z,93.79
2023-01-01T05:24:57.989Z,93.88
2023-01-01T05:25:57.918Z,94.17
2023-01-01T05:27:18.825Z,93.98
2023-01-01T05:27:57.745Z,93.70
2023-01-01T05:28:57.677Z,94.17
2023-01-01T05:29:57.603Z,93.60
2023-01-01T05:30:57.526Z,94.07
2023-01-01T05:31:57.452Z,93.41
2023-01-01T05:33:18.355Z,94.27
2023-01-01T05:33:57.304Z,93.51
2023-01-01T05:34:57.204Z,94.27
2023-01-01T05:35:57.126Z,93.51
2023-01-01T05:36:57.040Z,93.88
2023-01-01T05:37:56.961Z,94.07
2023-01-01T05:39:17.853Z,94.36
2023-01-01T05:39:56.813Z,93.98
2023-01-01T05:40:56.728Z,94.27
2023-01-01T05:41:56.643Z,94.07
2023-01-01T05:42:56.562Z,93.60
2023-01-01T05:43:56.489Z,94.36
2023-01-01T05:45:17.383Z,94.17
2023-01-01T05:45:56.364Z,93.70
2023-01-01T05:46:56.249Z,93.60
2023-01-01T05:47:56.167Z,93.98
2023-01-01T05:48:56.087Z,93.98
2023-01-01T05:49:56.023Z,94.17
2023-01-01T05:51:16.912Z,93.79
2023-01-01T05:51:55.843Z,93.88
2023-01-01T05:52:55.761Z,94.36
2023-01-01T05:53:55.696Z,94.93
2023-01-01T05:54:55.596Z,94.56
2023-01-01T05:55:55.531Z,94.84
2023-01-01T05:57:16.437Z,94.27
2023-01-01T05:57:55.370Z,94.27
2023-01-01T05:58:55.291Z,93.98
2023-01-01T05:59:55.222Z,93.98
2023-01-01T06:00:55.143Z,93.22
2023-01-01T06:01:55.101Z,94.36
2023-01-01T06:03:15.957Z,94.27
2023-01-01T06:03:54.994Z,94.27
2023-01-01T06:04:54.816Z,94.36
2023-01-01T06:05:54.748Z,94.74
2023-01-01T06:06:54.663Z,94.93
2023-01-01T06:07:54.582Z,94.74
2023-01-01T06:09:15.472Z,94.07
2023-01-01T06:09:54.446Z,94.12
2023-01-01T06:10:54.334Z,94.12
2023-01-01T06:11:54.263Z,94.70
2023-01-01T06:12:54.179Z,94.98
2023-01-01T06:13:54.117Z,94.32
2023-01-01T06:15:14.998Z,95.65
2023-01-01T06:15:53.952Z,95.46
2023-01-01T06:16:53.873Z,95.27
2023-01-01T06:17:53.783Z,95.75
2023-01-01T06:18:53.701Z,95.46
2023-01-01T06:19:53.616Z,95.65
2023-01-01T06:21:14.519Z,95.75
2023-01-01T06:21:53.454Z,96.22
2023-01-01T06:22:53.393Z,94.89
2023-01-01T06:23:53.303Z,96.41
2023-01-01T06:24:53.225Z,96.08
2023-01-01T06:25:53.160Z,97.22
2023-01-01T06:27:14.052Z,96.94
2023-01-01T06:27:52.984Z,97.13
2023-01-01T06:28:52.896Z,97.41
2023-01-01T06:29:52.829Z,97.41
2023-01-01T06:30:52.766Z,97.61
2023-01-01T06:31:52.673Z,97.89
2023-01-01T06:33:13.577Z,98.08
2023-01-01T06:33:52.516Z,98.70
2023-01-01T06:34:52.461Z,98.51
2023-01-01T06:35:52.358Z,97.75
2023-01-01T06:36:52.267Z,98.89
2023-01-01T06:37:52.193Z,98.79
2023-01-01T06:39:13.103Z,98.89
2023-01-01T06:39:52.024Z,98.89
2023-01-01T06:40:51.936Z,99.18
2023-01-01T06:41:51.875Z,99.27
2023-01-01T06:42:51.810Z,99.37
2023-01-01T06:43:51.716Z,98.60
2023-01-01T06:45:12.618Z,98.60
2023-01-01T06:45:51.612Z,99.18
2023-01-01T06:46:51.465Z,99.37
2023-01-01T06:47:51.398Z,98.89
2023-01-01T06:48:51.303Z,98.79
2023-01-01T06:49:51.238Z,99.27
2023-01-01T06:51:12.145Z,99.27
2023-01-01T06:51:51.077Z,98.51
2023-01-01T06:52:50.994Z,98.70
2023-01-01T06:53:50.935Z,98.89
2023-01-01T06:54:50.827Z,99.55
2023-01-01T06:55:56.704Z,99.84
2023-01-01T06:57:11.663Z,99.46
2023-01-01T06:57:50.596Z,99.27
2023-01-01T06:58:50.517Z,99.55
2023-01-01T06:59:50.437Z,99.08
2023-01-01T07:00:50.369Z,99.99
2023-01-01T07:01:50.395Z,99.99
2023-01-01T07:03:11.278Z,99.99
2023-01-01T07:03:50.115Z,99.99
2023-01-01T07:04:50.029Z,99.99
2023-01-01T07:05:49.951Z,99.99
2023-01-01T07:06:49.880Z,99.99
2023-01-01T07:07:49.797Z,99.99
2023-01-01T07:09:10.688Z,99.51
2023-01-01T07:09:49.636Z,99.89
2023-01-01T07:10:49.543Z,99.99
2023-01-01T07:11:49.489Z,99.99
2023-01-01T07:12:49.396Z,99.99
2023-01-01T07:13:49.311Z,99.99
2023-01-01T07:15:10.207Z,99.99
2023-01-01T07:15:49.204Z,99.99
2023-01-01T07:16:49.068Z,99.99
2023-01-01T07:17:48.997Z,99.99
2023-01-01T07:18:48.910Z,99.99
2023-01-01T07:19:48.837Z,99.99
2023-01-01T07:21:09.730Z,99.99
2023-01-01T07:21:48.692Z,99.99
2023-01-01T07:22:48.600Z,99.99
2023-01-01T07:23:48.515Z,99.99
2023-01-01T07:24:48.435Z,99.99
2023-01-01T07:25:48.354Z,99.99
2023-01-01T07:27:09.249Z,99.99
2023-01-01T07:27:48.199Z,99.99
2023-01-01T07:28:48.117Z,99.99
2023-01-01T07:29:48.028Z,99.99
2023-01-01T07:30:48.002Z,99.99
2023-01-01T07:31:47.883Z,99.99
2023-01-01T07:33:08.772Z,99.99
2023-01-01T07:33:47.713Z,99.99
2023-01-01T07:34:50.861Z,99.99
2023-01-01T07:35:47.561Z,99.99
2023-01-01T07:36:47.480Z,99.99
2023-01-01T07:37:47.407Z,99.99
2023-01-01T07:39:08.298Z,99.99
2023-01-01T07:39:47.224Z,99.99
2023-01-01T07:40:47.138Z,99.99
2023-01-01T07:41:47.104Z,99.99
2023-01-01T07:42:46.989Z,99.99
2023-01-01T07:43:46.920Z,99.99
2023-01-01T07:45:07.811Z,99.99
2023-01-01T07:45:46.744Z,99.99
2023-01-01T07:46:46.731Z,99.99
2023-01-01T07:47:46.601Z,99.99
2023-01-01T07:48:46.575Z,99.22
2023-01-01T07:49:46.430Z,99.51
2023-01-01T07:51:07.328Z,98.46
2023-01-01T07:51:46.272Z,97.99
2023-01-01T07:52:46.208Z,97.61
2023-01-01T07:53:46.118Z,97.80
2023-01-01T07:54:46.033Z,98.08
2023-01-01T07:55:45.953Z,98.08
2023-01-01T07:57:06.850Z,97.70
2023-01-01T07:57:45.812Z,98.36
2023-01-01T07:58:45.717Z,98.08
2023-01-01T07:59:45.630Z,98.18
2023-01-01T08:00:45.552Z,98.46
2023-01-01T08:01:45.565Z,97.80
2023-01-01T08:03:06.410Z,98.18
2023-01-01T08:03:45.335Z,97.51
2023-01-01T08:04:45.224Z,97.61
2023-01-01T08:05:45.159Z,98.27
2023-01-01T08:06:45.062Z,98.18
2023-01-01T08:07:45.022Z,97.99
2023-01-01T08:09:05.880Z,97.66
2023-01-01T08:09:44.821Z,97.94
2023-01-01T08:10:44.760Z,96.98
2023-01-01T08:11:44.671Z,96.32
2023-01-01T08:12:44.594Z,95.98
2023-01-01T08:13:44.513Z,95.41
2023-01-01T08:15:05.411Z,94.65
2023-01-01T08:15:44.397Z,94.56
2023-01-01T08:16:44.263Z,94.98
2023-01-01T08:17:47.028Z,93.55
2023-01-01T08:18:44.114Z,92.97
2023-01-01T08:19:44.026Z,92.55
2023-01-01T08:21:04.935Z,92.36
2023-01-01T08:21:43.875Z,92.64
2023-01-01T08:22:43.793Z,92.79
2023-01-01T08:23:43.720Z,91.74
2023-01-01T08:24:43.650Z,91.83
2023-01-01T08:25:43.560Z,91.35
2023-01-01T08:27:04.456Z,91.02
2023-01-01T08:27:43.401Z,88.81
2023-01-01T08:28:43.321Z,88.81
2023-01-01T08:29:43.263Z,88.53
2023-01-01T08:30:43.431Z,89.39
2023-01-01T08:31:43.190Z,88.24
2023-01-01T08:33:03.984Z,88.15
2023-01-01T08:33:42.936Z,88.43
2023-01-01T08:34:42.856Z,88.00
2023-01-01T08:35:42.797Z,87.14
2023-01-01T08:36:42.700Z,87.33
2023-01-01T08:37:42.616Z,87.14
2023-01-01T08:39:03.513Z,87.04
2023-01-01T08:39:42.452Z,87.62
2023-01-01T08:40:42.390Z,87.71
2023-01-01T08:41:42.293Z,87.14
2023-01-01T08:42:42.207Z,85.89
2023-01-01T08:43:42.134Z,86.57
2023-01-01T08:45:03.035Z,86.41
2023-01-01T08:45:41.985Z,86.94
2023-01-01T08:46:41.931Z,86.28
2023-01-01T08:47:41.804Z,85.99
2023-01-01T08:48:41.739Z,85.13
2023-01-01T08:49:41.677Z,86.37
2023-01-01T08:51:02.586Z,87.14
2023-01-01T08:51:41.539Z,86.57
2023-01-01T08:52:41.441Z,86.18
2023-01-01T08:53:46.909Z,86.94
2023-01-01T08:54:41.270Z,87.23
2023-01-01T08:55:41.175Z,87.04
2023-01-01T08:57:02.079Z,86.28
2023-01-01T08:57:41.030Z,85.80
2023-01-01T08:58:40.977Z,86.18
2023-01-01T08:59:40.863Z,87.14
2023-01-01T09:00:40.796Z,87.43
2023-01-01T09:01:40.880Z,87.33
2023-01-01T09:03:01.723Z,87.52
2023-01-01T09:03:40.586Z,88.00
2023-01-01T09:04:40.477Z,88.09
2023-01-01T09:05:40.398Z,87.19
2023-01-01T09:06:40.337Z,87.29
2023-01-01T09:07:40.235Z,87.95
2023-01-01T09:09:01.155Z,88.24
2023-01-01T09:09:40.069Z,87.95
2023-01-01T09:10:40.037Z,88.34
2023-01-01T09:11:39.928Z,87.57
2023-01-01T09:12:39.847Z,87.86
2023-01-01T09:13:39.765Z,89.01
2023-01-01T09:15:00.677Z,88.24
2023-01-01T09:15:39.618Z,87.95
2023-01-01T09:16:44.017Z,87.57
2023-01-01T09:17:39.471Z,87.19
2023-01-01T09:18:39.398Z,87.38
2023-01-01T09:19:39.311Z,87.76
2023-01-01T09:21:00.207Z,87.95
2023-01-01T09:21:39.141Z,87.86
2023-01-01T09:22:39.073Z,87.66
2023-01-01T09:23:38.996Z,88.15
2023-01-01T09:24:38.925Z,88.53
2023-01-01T09:25:38.864Z,88.43
2023-01-01T09:26:59.750Z,88.81
2023-01-01T09:27:38.685Z,88.24
2023-01-01T09:28:38.619Z,88.53
2023-01-01T09:29:38.511Z,88.34
2023-01-01T09:30:38.445Z,88.05
2023-01-01T09:31:38.375Z,88.15
2023-01-01T09:32:59.269Z,88.15
2023-01-01T09:33:38.208Z,88.34
2023-01-01T09:34:38.144Z,88.62
2023-01-01T09:35:38.049Z,89.10
2023-01-01T09:36:38.050Z,89.39
2023-01-01T09:37:37.903Z,89.01
2023-01-01T09:38:58.817Z,88.81
2023-01-01T09:39:37.729Z,88.81
2023-01-01T09:40:37.667Z,88.62
2023-01-01T09:41:37.588Z,88.24
2023-01-01T09:42:37.497Z,88.43
2023-01-01T09:43:37.418Z,88.62
2023-01-01T09:44:58.354Z,89.58
2023-01-01T09:45:37.273Z,89.01
2023-01-01T09:46:37.223Z,89.67
2023-01-01T09:47:37.118Z,88.53
2023-01-01T09:48:37.027Z,89.01
2023-01-01T09:49:36.951Z,88.34
2023-01-01T09:50:57.868Z,88.15
2023-01-01T09:51:41.146Z,88.05
2023-01-01T09:52:36.721Z,88.76
2023-01-01T09:53:36.639Z,88.57
2023-01-01T09:54:36.565Z,88.00
2023-01-01T09:55:36.468Z,88.09
2023-01-01T09:56:57.388Z,88.57
2023-01-01T09:57:36.324Z,89.15
2023-01-01T09:58:36.318Z,88.57
2023-01-01T09:59:36.171Z,87.33
2023-01-01T10:00:36.105Z,86.94
2023-01-01T10:01:36.109Z,87.43
2023-01-01T10:02:57.015Z,87.14
2023-01-01T10:03:35.949Z,87.62
2023-01-01T10:04:35.793Z,88.19
2023-01-01T10:05:35.699Z,87.81
2023-01-01T10:06:35.619Z,88.86
2023-01-01T10:07:35.543Z,87.71
2023-01-01T10:08:56.451Z,88.43
2023-01-01T10:09:35.377Z,87.27
2023-01-01T10:10:35.307Z,88.04
2023-01-01T10:11:35.231Z,86.61
2023-01-01T10:12:35.158Z,86.51
2023-01-01T10:13:35.098Z,86.13
2023-01-01T10:15:00.690Z,86.22
2023-01-01T10:15:34.926Z,87.03
2023-01-01T10:16:34.887Z,87.13
2023-01-01T10:17:34.772Z,86.17
2023-01-01T10:18:34.696Z,85.12
2023-01-01T10:19:34.606Z,84.74
2023-01-01T10:20:55.529Z,84.30
2023-01-01T10:21:34.455Z,84.64
2023-01-01T10:22:34.380Z,84.92
2023-01-01T10:23:34.301Z,84.06
2023-01-01T10:24:34.220Z,84.55
2023-01-01T10:25:34.146Z,84.74
2023-01-01T10:26:55.052Z,84.55
2023-01-01T10:27:33.980Z,84.16
2023-01-01T10:28:33.912Z,84.45
2023-01-01T10:29:33.831Z,84.45
2023-01-01T10:30:33.764Z,83.30
2023-01-01T10:31:33.680Z,82.73
2023-01-01T10:32:54.580Z,83.30
2023-01-01T10:33:33.512Z,84.16
2023-01-01T10:34:33.463Z,84.64
2023-01-01T10:35:33.372Z,84.83
2023-01-01T10:36:33.321Z,84.83
2023-01-01T10:37:33.211Z,85.21
2023-01-01T10:38:54.116Z,85.02
2023-01-01T10:39:33.061Z,82.73
2023-01-01T10:40:32.984Z,82.73
2023-01-01T10:41:32.902Z,83.20
2023-01-01T10:42:32.820Z,83.78
2023-01-01T10:43:32.749Z,84.16
2023-01-01T10:44:53.684Z,85.02
2023-01-01T10:45:32.670Z,84.83
2023-01-01T10:46:32.699Z,84.83
2023-01-01T10:47:32.429Z,84.06
2023-01-01T10:48:32.359Z,84.83
2023-01-01T10:49:32.285Z,85.21
2023-01-01T10:50:53.195Z,84.16
2023-01-01T10:51:32.124Z,84.55
2023-01-01T10:52:32.064Z,85.60
2023-01-01T10:53:31.973Z,85.98
2023-01-01T10:54:32.051Z,85.02
2023-01-01T10:55:31.822Z,84.83
2023-01-01T10:56:52.726Z,85.21
2023-01-01T10:57:31.653Z,84.35
2023-01-01T10:58:31.619Z,84.64
2023-01-01T10:59:31.526Z,84.35
2023-01-01T11:00:31.442Z,82.92
2023-01-01T11:01:31.476Z,82.92
2023-01-01T11:02:52.288Z,83.97
2023-01-01T11:03:31.197Z,85.02
2023-01-01T11:04:31.151Z,83.78
2023-01-01T11:05:31.038Z,84.26
2023-01-01T11:06:30.963Z,83.30
2023-01-01T11:07:30.880Z,84.16
2023-01-01T11:08:51.790Z,84.83
2023-01-01T11:09:30.738Z,84.45
2023-01-01T11:10:30.656Z,83.97
2023-01-01T11:11:30.575Z,84.45
2023-01-01T11:13:03.643Z,84.83
2023-01-01T11:13:30.429Z,85.02
2023-01-01T11:14:51.338Z,84.74
2023-01-01T11:15:30.284Z,83.87
2023-01-01T11:16:30.226Z,84.45
2023-01-01T11:17:30.133Z,85.12
2023-01-01T11:18:30.032Z,83.97
2023-01-01T11:19:29.957Z,84.64
2023-01-01T11:20:50.853Z,84.92
2023-01-01T11:21:29.796Z,85.02
2023-01-01T11:22:29.732Z,84.64
2023-01-01T11:23:29.643Z,85.02
2023-01-01T11:24:29.575Z,85.98
2023-01-01T11:25:29.502Z,86.22
2023-01-01T11:26:54.586Z,85.46
2023-01-01T11:27:29.342Z,84.98
2023-01-01T11:28:29.257Z,84.98
2023-01-01T11:29:29.196Z,85.08
2023-01-01T11:30:29.218Z,85.27
2023-01-01T11:31:29.022Z,84.74
2023-01-01T11:32:55.226Z,85.12
2023-01-01T11:33:28.868Z,85.02
2023-01-01T11:34:28.814Z,84.64
2023-01-01T11:35:28.711Z,84.79
2023-01-01T11:36:28.660Z,84.98
2023-01-01T11:37:28.597Z,84.92
2023-01-01T11:38:49.485Z,85.12
2023-01-01T11:39:28.425Z,84.92
2023-01-01T11:40:28.341Z,84.64
2023-01-01T11:41:28.259Z,84.74
2023-01-01T11:42:28.192Z,84.83
2023-01-01T11:43:28.095Z,84.64
2023-01-01T11:44:49.017Z,84.74
2023-01-01T11:45:30.601Z,84.45
2023-01-01T11:46:27.920Z,85.02
2023-01-01T11:47:27.841Z,84.69
2023-01-01T11:48:27.733Z,84.74
2023-01-01T11:49:27.640Z,84.74
2023-01-01T11:50:53.655Z,84.98
2023-01-01T11:51:27.521Z,84.16
2023-01-01T11:52:27.502Z,84.35
2023-01-01T11:53:27.389Z,83.87
2023-01-01T11:54:27.255Z,84.45
2023-01-01T11:55:27.197Z,84.79
2023-01-01T11:56:48.110Z,84.41
2023-01-01T11:57:27.038Z,84.83
2023-01-01T11:58:26.958Z,85.17
2023-01-01T11:59:26.872Z,85.65
2023-01-01T12:00:26.872Z,84.98
2023-01-01T12:01:26.787Z,85.55
2023-01-01T12:02:47.676Z,85.17
2023-01-01T12:03:32.895Z,85.46
2023-01-01T12:04:26.513Z,84.69
2023-01-01T12:05:26.432Z,84.88
2023-01-01T12:06:26.367Z,85.17
2023-01-01T12:07:26.249Z,84.69
2023-01-01T12:08:47.160Z,84.79
2023-01-01T12:09:26.168Z,84.98
2023-01-01T12:10:26.021Z,84.79
2023-01-01T12:11:25.937Z,85.94
2023-01-01T12:12:26.028Z,85.94
2023-01-01T12:13:25.781Z,85.36
2023-01-01T12:14:46.768Z,84.69
2023-01-01T12:15:25.634Z,85.36
2023-01-01T12:16:25.783Z,85.17
2023-01-01T12:17:25.536Z,84.69
2023-01-01T12:18:25.439Z,85.46
2023-01-01T12:19:25.320Z,86.13
2023-01-01T12:20:46.272Z,86.41
2023-01-01T12:21:25.164Z,84.59
2023-01-01T12:22:25.102Z,85.55
2023-01-01T12:23:25.016Z,85.84
2023-01-01T12:24:24.987Z,85.94
2023-01-01T12:25:24.890Z,86.51
2023-01-01T12:26:45.832Z,86.22
2023-01-01T12:27:25.297Z,86.22
2023-01-01T12:28:25.353Z,86.13
2023-01-01T12:29:24.545Z,86.04
2023-01-01T12:30:24.522Z,85.17
2023-01-01T12:31:24.464Z,84.79
2023-01-01T12:32:45.324Z,85.08
2023-01-01T12:33:24.281Z,85.08
2023-01-01T12:34:24.174Z,85.17
2023-01-01T12:35:24.136Z,86.22
2023-01-01T12:36:24.066Z,85.94
2023-01-01T12:37:23.950Z,84.88
2023-01-01T12:38:44.840Z,85.65
2023-01-01T12:39:24.322Z,86.04
2023-01-01T12:40:25.012Z,86.22
2023-01-01T12:41:23.683Z,85.27
2023-01-01T12:42:23.556Z,85.36
2023-01-01T12:43:23.472Z,85.65
2023-01-01T12:44:44.402Z,84.98
2023-01-01T12:45:28.731Z,84.98
2023-01-01T12:46:23.302Z,85.50
2023-01-01T12:47:23.312Z,85.88
2023-01-01T12:48:23.083Z,86.13
2023-01-01T12:49:23.087Z,85.65
2023-01-01T12:50:47.908Z,86.22
2023-01-01T12:51:22.861Z,87.08